Time;durP1;ratioP1;P1;durP2;ratioP2;P2;SDS_P1;SDS_P2;PMS_P1;PMS_P2;Temp;Humidity;BMP_temperature;BMP_pressure;BME280_temperature;BME280_humidity;BME280_pressure;Samples;Min_cycle;Max_cycle;Signal;HPM_P1;HPM_P2
2023/07/07 00:01:03;;;;;;;1.90;1.70;;;14.40;84.10;14.30;101078.00;;;;4965162;28;93111;-69
2023/07/07 00:03:29;;;;;;;2.35;1.75;;;14.30;84.50;14.30;101072.00;;;;4950253;28;93158;-69
2023/07/07 00:05:55;;;;;;;1.73;1.63;;;14.30;85.00;14.30;101083.00;;;;4966624;28;122530;-69
2023/07/07 00:08:23;;;;;;;1.40;1.30;;;14.20;85.40;14.20;101075.00;;;;4965839;28;122580;-68
2023/07/07 00:10:50;;;;;;;2.13;1.65;;;14.20;85.80;14.20;101085.00;;;;4967394;28;109968;-69
2023/07/07 00:13:16;;;;;;;1.67;1.57;;;14.20;86.20;14.10;101085.00;;;;4969655;28;93998;-69
2023/07/07 00:15:44;;;;;;;2.47;1.90;;;14.10;86.50;14.00;101079.00;;;;4965613;28;124130;-69
2023/07/07 00:18:16;;;;;;;3.67;1.57;;;14.00;86.90;14.00;101088.00;;;;4965408;28;93599;-69
2023/07/07 00:20:42;;;;;;;2.17;1.80;;;14.00;87.40;13.90;101088.00;;;;4969778;28;93307;-69
2023/07/07 00:23:08;;;;;;;2.97;2.17;;;13.90;87.80;13.90;101088.00;;;;4969858;28;98866;-69
2023/07/07 00:25:34;;;;;;;1.87;1.77;;;13.90;88.20;13.90;101091.00;;;;4967576;28;123183;-69
2023/07/07 00:27:59;;;;;;;2.43;1.80;;;13.80;88.70;13.80;101090.00;;;;4967437;28;121825;-69
2023/07/07 00:30:25;;;;;;;1.60;1.50;;;13.80;88.90;13.80;101102.00;;;;4967181;28;98456;-69
2023/07/07 00:32:51;;;;;;;2.37;1.77;;;13.80;89.20;13.80;101101.00;;;;4964991;28;108726;-69
2023/07/07 00:35:16;;;;;;;1.40;1.10;;;13.80;89.60;13.80;101103.00;;;;4967072;28;123970;-69
2023/07/07 00:37:45;;;;;;;1.97;1.17;;;13.80;89.90;13.90;101103.00;;;;4966429;28;121911;-68
2023/07/07 00:40:12;;;;;;;1.63;1.53;;;13.80;90.00;13.90;101108.00;;;;4967152;28;93158;-68
2023/07/07 00:42:37;;;;;;;2.63;1.60;;;13.90;90.20;13.90;101103.00;;;;4969685;28;92831;-69
2023/07/07 00:45:17;;;;;;;1.70;1.40;;;13.90;90.30;13.90;101103.00;;;;4965571;28;123072;-69
2023/07/07 00:47:58;;;;;;;1.80;1.37;;;13.90;90.40;13.90;101102.00;;;;4965702;28;95804;-70
2023/07/07 00:50:38;;;;;;;2.57;1.57;;;13.90;90.60;13.90;101099.00;;;;4970525;28;92976;-69
2023/07/07 00:53:05;;;;;;;3.00;1.60;;;13.90;90.70;13.90;101095.00;;;;4968297;28;93027;-69
2023/07/07 00:55:43;;;;;;;1.87;1.50;;;13.90;90.80;13.90;101110.00;;;;4947808;28;92262;-69
2023/07/07 00:58:14;;;;;;;1.70;1.20;;;14.00;91.00;14.00;101113.00;;;;4948609;28;106581;-69
2023/07/07 01:00:46;;;;;;;3.37;1.90;;;13.90;91.10;14.00;101105.00;;;;4950887;28;93356;-69
2023/07/07 01:03:19;;;;;;;1.70;1.40;;;13.90;91.30;14.00;101107.00;;;;4946743;28;94085;-69
2023/07/07 01:05:47;;;;;;;2.07;1.90;;;13.90;91.40;14.00;101106.00;;;;4950877;28;94238;-69
2023/07/07 01:08:12;;;;;;;2.03;1.80;;;14.00;91.60;13.90;101111.00;;;;4963318;28;121857;-70
2023/07/07 01:10:38;;;;;;;3.37;2.37;;;13.90;91.60;13.90;101105.00;;;;4955448;28;104887;-69
2023/07/07 01:13:04;;;;;;;1.47;1.37;;;13.90;91.80;13.80;101109.00;;;;4970684;28;108720;-68
2023/07/07 01:15:36;;;;;;;1.77;1.67;;;13.80;91.90;13.80;101116.00;;;;4955081;28;93140;-69
2023/07/07 01:18:33;;;;;;;2.00;1.43;;;13.80;92.10;13.70;101115.00;;;;4966633;28;114945;-69
2023/07/07 01:21:17;;;;;;;1.77;1.40;;;13.70;92.40;13.60;101116.00;;;;4954428;28;94300;-69
2023/07/07 01:23:53;;;;;;;1.77;1.67;;;13.60;92.60;13.50;101112.00;;;;4954197;28;93287;-69
2023/07/07 01:26:26;;;;;;;2.30;1.80;;;13.50;92.90;13.40;101109.00;;;;4967747;28;93140;-68
2023/07/07 01:29:22;;;;;;;1.47;1.37;;;13.40;93.10;13.30;101111.00;;;;4966913;28;94136;-68
2023/07/07 01:31:58;;;;;;;3.23;1.87;;;13.40;93.40;13.30;101111.00;;;;4967356;28;92861;-68
2023/07/07 01:34:25;;;;;;;3.67;1.10;;;13.30;93.60;13.20;101104.00;;;;4947780;28;93202;-69
2023/07/07 01:36:50;;;;;;;2.17;1.60;;;13.20;93.70;13.20;101109.00;;;;4968781;28;122761;-69
2023/07/07 01:39:16;;;;;;;2.13;1.93;;;13.20;94.00;13.20;101115.00;;;;4967200;28;122455;-69
2023/07/07 01:42:03;;;;;;;1.90;1.80;;;13.10;94.20;13.10;101109.00;;;;4967137;28;111125;-69
2023/07/07 01:45:03;;;;;;;2.40;1.63;;;13.10;94.50;13.00;101101.00;;;;4952302;28;93358;-69
2023/07/07 01:47:38;;;;;;;2.47;2.03;;;13.10;94.80;12.90;101106.00;;;;4949108;28;96948;-68
2023/07/07 01:50:17;;;;;;;2.20;1.60;;;13.00;95.30;12.80;101095.00;;;;4967512;28;101938;-70
2023/07/07 01:52:54;;;;;;;1.33;1.23;;;12.90;95.60;12.70;101091.00;;;;4950893;28;92915;-69
2023/07/07 01:55:25;;;;;;;1.67;1.30;;;12.80;95.90;12.70;101094.00;;;;4964569;28;94023;-68
2023/07/07 01:57:57;;;;;;;1.70;1.40;;;12.70;96.00;12.60;101087.00;;;;4952110;28;95513;-68
2023/07/07 02:00:23;;;;;;;1.37;1.27;;;12.60;96.30;12.60;101081.00;;;;4951157;28;92999;-69
2023/07/07 02:02:52;;;;;;;1.90;1.77;;;12.70;96.50;12.60;101090.00;;;;4967021;28;92909;-68
2023/07/07 02:05:17;;;;;;;3.90;1.60;;;12.60;96.70;12.60;101092.00;;;;4967663;28;92977;-68
2023/07/07 02:07:44;;;;;;;2.53;1.97;;;12.60;97.20;12.60;101102.00;;;;4961139;28;122766;-68
2023/07/07 02:10:11;;;;;;;2.37;1.27;;;12.60;97.00;12.50;101095.00;;;;4965178;28;93742;-69
2023/07/07 02:12:36;;;;;;;1.73;1.60;;;12.50;97.20;12.50;101109.00;;;;4966537;28;92281;-68
2023/07/07 02:15:03;;;;;;;1.93;1.53;;;12.50;97.40;12.50;101105.00;;;;4970344;28;108899;-68
2023/07/07 02:17:29;;;;;;;2.13;1.33;;;12.50;97.50;12.50;101102.00;;;;4954416;28;114292;-69
2023/07/07 02:19:56;;;;;;;3.17;1.83;;;12.50;97.70;12.40;101114.00;;;;4968715;28;93841;-69
2023/07/07 02:22:21;;;;;;;5.50;1.83;;;12.50;98.00;12.40;101115.00;;;;4967356;28;102093;-69
2023/07/07 02:24:47;;;;;;;1.50;1.40;;;12.40;98.10;12.40;101110.00;;;;4969498;28;104152;-69
2023/07/07 02:27:13;;;;;;;3.17;2.40;;;12.40;98.20;12.40;101112.00;;;;4968532;28;122465;-69
2023/07/07 02:29:39;;;;;;;2.13;1.93;;;12.40;98.40;12.30;101121.00;;;;4967906;28;93003;-68
2023/07/07 02:32:06;;;;;;;1.83;1.40;;;12.40;98.50;12.30;101112.00;;;;4966138;28;110246;-69
2023/07/07 02:34:32;;;;;;;1.93;1.83;;;12.30;98.60;12.30;101119.00;;;;4935573;28;101148;-69
2023/07/07 02:36:59;;;;;;;2.43;1.93;;;12.30;98.80;12.30;101111.00;;;;4972165;28;92758;-69
2023/07/07 02:39:26;;;;;;;1.77;1.67;;;12.30;98.90;12.20;101118.00;;;;4937881;28;94010;-69
2023/07/07 02:41:51;;;;;;;1.67;1.57;;;12.20;99.00;12.20;101110.00;;;;4968478;28;96500;-69
2023/07/07 02:44:18;;;;;;;2.77;1.67;;;12.20;99.10;12.10;101114.00;;;;4970507;28;95233;-69
2023/07/07 02:46:44;;;;;;;1.97;1.77;;;12.20;99.20;12.10;101113.00;;;;4971831;28;94438;-69
2023/07/07 02:49:10;;;;;;;2.57;2.03;;;12.20;99.40;12.10;101121.00;;;;4967739;28;92916;-69
2023/07/07 02:51:36;;;;;;;2.07;1.83;;;12.10;99.50;12.10;101114.00;;;;4970632;28;101706;-69
2023/07/07 02:54:01;;;;;;;2.83;2.37;;;12.20;99.70;12.10;101119.00;;;;4967019;28;107536;-69
2023/07/07 02:56:27;;;;;;;2.70;2.37;;;12.10;99.70;12.10;101120.00;;;;4966761;28;123238;-69
2023/07/07 02:58:53;;;;;;;1.77;1.50;;;12.00;99.80;12.10;101120.00;;;;4964379;28;122040;-69
2023/07/07 03:01:20;;;;;;;1.87;1.47;;;12.10;99.90;12.10;101122.00;;;;4933500;28;110859;-69
2023/07/07 03:03:49;;;;;;;2.67;1.60;;;12.10;99.90;12.10;101124.00;;;;4971903;28;92839;-69
2023/07/07 03:06:40;;;;;;;2.80;1.73;;;12.00;99.90;12.00;101119.00;;;;4970760;28;114226;-69
2023/07/07 03:09:07;;;;;;;3.97;2.20;;;12.00;99.90;12.00;101130.00;;;;4950800;28;121083;-69
2023/07/07 03:11:33;;;;;;;2.20;2.00;;;12.00;99.90;12.00;101122.00;;;;4953107;28;100978;-69
2023/07/07 03:13:59;;;;;;;2.40;2.17;;;12.00;99.90;11.90;101120.00;;;;4968383;28;107761;-69
2023/07/07 03:16:30;;;;;;;1.83;1.73;;;11.90;99.90;11.90;101127.00;;;;4938267;28;96102;-69
2023/07/07 03:19:00;;;;;;;1.60;1.50;;;11.90;99.90;11.90;101124.00;;;;4934181;28;94750;-68
2023/07/07 03:21:26;;;;;;;2.13;1.90;;;11.90;99.90;11.90;101129.00;;;;4968723;28;103080;-68
2023/07/07 03:23:53;;;;;;;1.97;1.33;;;11.90;99.90;11.90;101131.00;;;;4965284;28;93332;-70
2023/07/07 03:26:22;;;;;;;2.30;2.10;;;11.90;99.90;11.90;101137.00;;;;4950869;28;92703;-70
2023/07/07 03:28:48;;;;;;;2.37;2.10;;;11.90;99.90;11.90;101136.00;;;;4950903;28;94579;-68
2023/07/07 03:31:25;;;;;;;2.10;1.90;;;11.90;99.90;11.90;101136.00;;;;4971606;28;110735;-68
2023/07/07 03:33:56;;;;;;;2.50;2.03;;;11.90;99.90;11.90;101134.00;;;;4953697;28;94175;-69
2023/07/07 03:36:25;;;;;;;4.00;2.60;;;11.90;99.90;11.90;101135.00;;;;4969415;28;94100;-69
2023/07/07 03:38:51;;;;;;;4.97;2.30;;;11.90;99.90;11.90;101129.00;;;;4968839;28;94115;-69
2023/07/07 03:41:22;;;;;;;2.17;1.83;;;11.90;99.90;11.90;101135.00;;;;4969780;28;103858;-69
2023/07/07 03:43:48;;;;;;;2.23;2.03;;;11.90;99.90;11.90;101138.00;;;;4971165;28;93146;-70
2023/07/07 03:46:17;;;;;;;2.97;2.20;;;11.90;99.90;11.90;101130.00;;;;4950984;28;93030;-69
2023/07/07 03:48:50;;;;;;;3.30;2.67;;;11.90;99.90;11.90;101129.00;;;;4968233;28;113514;-69
2023/07/07 03:51:17;;;;;;;3.70;2.30;;;11.90;99.90;12.00;101138.00;;;;4969308;28;92438;-69
2023/07/07 03:53:47;;;;;;;2.20;2.00;;;11.90;99.90;12.00;101137.00;;;;4968092;28;92823;-69
2023/07/07 03:56:13;;;;;;;2.37;2.17;;;12.00;99.90;12.00;101148.00;;;;4969041;28;93479;-69
2023/07/07 03:58:39;;;;;;;6.53;2.33;;;12.00;99.90;12.00;101143.00;;;;4966877;28;94022;-69
2023/07/07 04:01:09;;;;;;;2.90;2.50;;;12.00;99.90;12.10;101141.00;;;;4972137;28;103271;-69
2023/07/07 04:03:36;;;;;;;2.17;1.97;;;12.00;99.90;12.10;101142.00;;;;4970542;28;101474;-69
2023/07/07 04:06:02;;;;;;;1.67;1.53;;;12.00;99.90;12.10;101134.00;;;;4967513;28;99519;-69
2023/07/07 04:08:29;;;;;;;2.20;2.00;;;12.10;99.90;12.20;101139.00;;;;4966732;28;122877;-69
2023/07/07 04:11:10;;;;;;;3.47;2.00;;;12.10;99.90;12.20;101141.00;;;;4966434;28;92943;-69
2023/07/07 04:13:39;;;;;;;1.70;1.60;;;12.20;99.90;12.30;101134.00;;;;4967288;28;92857;-69
2023/07/07 04:16:18;;;;;;;2.67;2.13;;;12.20;99.90;12.40;101146.00;;;;4971408;28;92883;-69
2023/07/07 04:18:46;;;;;;;2.53;2.40;;;12.30;99.90;12.50;101145.00;;;;4947327;28;93084;-69
2023/07/07 04:21:15;;;;;;;2.83;2.13;;;12.40;99.90;12.60;101148.00;;;;4969178;28;93346;-69
2023/07/07 04:23:45;;;;;;;3.33;2.73;;;12.50;99.90;12.60;101146.00;;;;4958148;28;93945;-69
2023/07/07 04:26:11;;;;;;;3.33;2.30;;;12.60;99.90;12.70;101137.00;;;;4969414;28;115853;-70
2023/07/07 04:28:38;;;;;;;3.80;2.33;;;12.70;99.90;12.80;101150.00;;;;4951100;28;93140;-69
2023/07/07 04:31:08;;;;;;;3.87;2.30;;;12.80;99.90;12.90;101141.00;;;;4968436;28;93170;-69
2023/07/07 04:33:35;;;;;;;2.83;1.93;;;12.80;99.90;13.00;101142.00;;;;4965865;28;92926;-69
2023/07/07 04:36:04;;;;;;;4.07;2.57;;;12.90;99.90;13.10;101153.00;;;;4968584;28;94314;-70
2023/07/07 04:38:31;;;;;;;2.97;1.67;;;13.00;99.90;13.30;101155.00;;;;4965710;28;93876;-69
2023/07/07 04:41:14;;;;;;;1.57;1.47;;;13.20;99.90;13.50;101159.00;;;;4967214;28;92050;-69
2023/07/07 04:43:54;;;;;;;4.10;2.27;;;13.40;99.90;13.70;101162.00;;;;4968805;28;93430;-69
2023/07/07 04:46:36;;;;;;;2.33;2.03;;;13.50;99.90;13.90;101163.00;;;;4969378;28;93984;-70
2023/07/07 04:49:06;;;;;;;2.23;1.73;;;13.80;99.90;14.20;101159.00;;;;4950830;28;95140;-69
2023/07/07 04:51:38;;;;;;;2.50;2.30;;;14.00;99.90;14.40;101164.00;;;;4970066;28;93176;-70
2023/07/07 04:54:06;;;;;;;5.80;2.73;;;14.20;99.90;14.60;101177.00;;;;4951237;28;94132;-70
2023/07/07 04:56:33;;;;;;;3.10;2.80;;;14.40;99.90;14.90;101187.00;;;;4967783;28;94268;-70
2023/07/07 04:58:59;;;;;;;3.03;2.10;;;14.70;99.90;15.10;101180.00;;;;4964659;28;92811;-70
2023/07/07 05:01:28;;;;;;;2.83;2.03;;;14.90;99.90;15.30;101183.00;;;;4966863;28;92959;-70
2023/07/07 05:03:59;;;;;;;3.58;2.42;;;15.10;99.90;15.50;101180.00;;;;4948482;28;93863;-70
2023/07/07 05:06:28;;;;;;;3.00;2.42;;;15.30;99.90;15.70;101185.00;;;;4967870;28;93153;-70
2023/07/07 05:08:55;;;;;;;4.35;2.05;;;15.50;99.90;15.90;101180.00;;;;4967073;28;92883;-70
2023/07/07 05:11:25;;;;;;;2.25;1.92;;;15.70;99.90;16.10;101173.00;;;;4966693;28;93218;-70
2023/07/07 05:13:52;;;;;;;2.55;2.30;;;15.90;99.90;16.30;101191.00;;;;4943084;28;93905;-70
2023/07/07 05:16:22;;;;;;;3.85;2.92;;;16.10;99.90;16.60;101194.00;;;;4965946;28;93205;-69
2023/07/07 05:18:49;;;;;;;5.80;2.08;;;16.40;99.90;16.80;101192.00;;;;4967283;28;93641;-69
2023/07/07 05:21:17;;;;;;;2.70;2.13;;;16.60;99.90;17.00;101188.00;;;;4967993;28;92803;-70
2023/07/07 05:23:43;;;;;;;2.92;2.45;;;16.80;99.90;17.20;101193.00;;;;4953189;28;92806;-69
2023/07/07 05:26:09;;;;;;;2.67;1.98;;;17.00;99.90;17.50;101188.00;;;;4967026;28;119357;-71
2023/07/07 05:28:36;;;;;;;2.38;1.73;;;17.20;99.90;17.70;101194.00;;;;4967157;28;100531;-69
2023/07/07 05:31:04;;;;;;;6.22;2.20;;;17.50;99.90;18.00;101198.00;;;;4947077;28;92157;-68
2023/07/07 05:33:30;;;;;;;2.47;1.83;;;17.70;99.90;18.20;101201.00;;;;4967140;28;92979;-69
2023/07/07 05:35:59;;;;;;;3.40;1.73;;;17.90;99.90;18.40;101195.00;;;;4961245;28;122712;-70
2023/07/07 05:38:27;;;;;;;1.70;1.40;;;18.20;99.90;18.60;101204.00;;;;4967823;28;94171;-69
2023/07/07 05:40:54;;;;;;;2.33;2.13;;;18.40;99.90;18.80;101206.00;;;;4969569;28;99791;-69
2023/07/07 05:43:22;;;;;;;2.20;2.00;;;18.60;99.90;19.00;101211.00;;;;4965326;28;92850;-68
2023/07/07 05:46:05;;;;;;;2.13;1.77;;;18.80;99.90;19.20;101203.00;;;;4968363;28;93076;-69
2023/07/07 05:48:31;;;;;;;2.75;2.20;;;19.00;99.80;19.40;101214.00;;;;4962077;28;99654;-69
2023/07/07 05:51:00;;;;;;;3.60;2.35;;;19.20;99.30;19.60;101213.00;;;;4969649;28;110841;-70
2023/07/07 05:53:26;;;;;;;2.33;1.67;;;19.40;98.90;19.90;101214.00;;;;4952776;28;92646;-70
2023/07/07 05:55:55;;;;;;;2.78;1.67;;;19.60;98.50;20.10;101209.00;;;;4965837;28;92588;-70
2023/07/07 05:58:20;;;;;;;1.85;1.67;;;19.80;97.90;20.30;101226.00;;;;4951709;28;113926;-69
2023/07/07 06:00:46;;;;;;;2.10;1.90;;;20.00;97.50;20.50;101219.00;;;;4968429;28;112632;-69
2023/07/07 06:03:12;;;;;;;2.45;1.55;;;20.20;97.00;20.70;101222.00;;;;4971318;28;94064;-71
2023/07/07 06:05:37;;;;;;;3.95;2.38;;;20.50;96.30;20.90;101218.00;;;;4966959;28;94526;-70
2023/07/07 06:08:04;;;;;;;1.75;1.35;;;20.70;95.40;21.20;101218.00;;;;4967801;28;123470;-70
2023/07/07 06:10:30;;;;;;;1.65;1.55;;;20.90;94.60;21.40;101217.00;;;;4972092;28;111472;-70
2023/07/07 06:12:56;;;;;;;2.17;1.83;;;21.10;93.80;21.60;101218.00;;;;4954940;28;94521;-69
2023/07/07 06:15:22;;;;;;;2.85;1.58;;;21.30;93.50;21.80;101234.00;;;;4969077;28;94054;-69
2023/07/07 06:17:48;;;;;;;4.22;1.98;;;21.50;92.80;22.00;101228.00;;;;4967056;28;122370;-69
2023/07/07 06:20:15;;;;;;;2.00;1.77;;;21.70;92.20;22.20;101237.00;;;;4971536;28;92099;-69
2023/07/07 06:22:41;;;;;;;2.80;1.75;;;22.00;91.40;22.50;101237.00;;;;4970822;28;92949;-69
2023/07/07 06:25:08;;;;;;;2.10;1.85;;;22.20;90.70;22.70;101235.00;;;;4971752;28;98169;-69
2023/07/07 06:27:33;;;;;;;3.13;1.50;;;22.40;87.70;22.80;101235.00;;;;4952234;28;106452;-70
2023/07/07 06:29:59;;;;;;;1.98;1.88;;;22.50;86.50;22.90;101241.00;;;;4947854;28;110602;-70
2023/07/07 06:32:25;;;;;;;1.60;1.50;;;22.60;86.10;23.10;101228.00;;;;4948866;28;106038;-69
2023/07/07 06:34:50;;;;;;;12.18;1.75;;;22.80;84.70;23.30;101237.00;;;;4967025;28;122924;-70
2023/07/07 06:37:17;;;;;;;2.28;1.73;;;23.00;83.30;23.40;101239.00;;;;4968850;28;121393;-70
2023/07/07 06:39:42;;;;;;;3.00;1.80;;;23.20;81.40;23.60;101239.00;;;;4973340;28;92811;-70
2023/07/07 06:42:09;;;;;;;2.45;1.50;;;23.30;78.70;23.80;101237.00;;;;4952415;28;107277;-70
2023/07/07 06:44:38;;;;;;;2.08;1.55;;;23.50;77.30;23.90;101237.00;;;;4968965;28;102246;-70
2023/07/07 06:47:05;;;;;;;1.30;1.00;;;23.70;74.90;24.10;101236.00;;;;4968688;28;92841;-70
2023/07/07 06:49:31;;;;;;;1.63;1.52;;;23.80;74.70;24.30;101235.00;;;;4972234;28;93168;-70
2023/07/07 06:51:56;;;;;;;1.95;1.23;;;24.00;72.90;24.50;101226.00;;;;4970342;28;104057;-69
2023/07/07 06:54:22;;;;;;;1.88;1.48;;;24.20;70.70;24.70;101232.00;;;;4970737;28;108505;-69
2023/07/07 06:56:48;;;;;;;1.88;1.20;;;24.40;70.70;25.00;101234.00;;;;4967914;28;121766;-69
2023/07/07 06:59:13;;;;;;;1.17;1.08;;;24.60;70.50;25.20;101235.00;;;;4969243;28;110394;-71
2023/07/07 07:01:40;;;;;;;2.88;1.73;;;24.90;69.60;25.50;101233.00;;;;4967150;28;107621;-69
2023/07/07 07:04:05;;;;;;;1.73;1.17;;;25.10;68.00;25.70;101231.00;;;;4967358;28;94013;-70
2023/07/07 07:06:31;;;;;;;1.80;1.13;;;25.40;67.20;26.00;101250.00;;;;4973323;28;93242;-70
2023/07/07 07:08:57;;;;;;;1.33;0.80;;;25.60;66.00;26.20;101249.00;;;;4968784;28;102801;-70
2023/07/07 07:11:22;;;;;;;2.03;1.27;;;25.90;64.00;26.50;101243.00;;;;4967386;28;109012;-68
2023/07/07 07:13:48;;;;;;;1.38;1.08;;;26.10;61.00;26.70;101248.00;;;;4968586;28;111608;-70
2023/07/07 07:16:14;;;;;;;1.30;0.93;;;26.40;59.00;26.90;101241.00;;;;4968875;28;123259;-71
2023/07/07 07:18:39;;;;;;;1.08;1.00;;;26.50;57.80;27.00;101244.00;;;;4953075;28;93137;-70
2023/07/07 07:21:05;;;;;;;1.33;0.73;;;26.70;56.70;27.10;101250.00;;;;4967657;28;109093;-69
2023/07/07 07:23:31;;;;;;;1.75;1.20;;;26.80;55.40;27.30;101240.00;;;;4966357;28;122580;-69
2023/07/07 07:25:57;;;;;;;0.98;0.88;;;27.00;55.40;27.30;101256.00;;;;4967755;28;121363;-71
2023/07/07 07:28:22;;;;;;;1.58;0.80;;;27.10;53.60;27.40;101248.00;;;;4965247;28;110259;-71
2023/07/07 07:30:49;;;;;;;0.85;0.80;;;27.10;52.30;27.40;101242.00;;;;4966637;28;108427;-71
2023/07/07 07:33:27;;;;;;;1.10;0.88;;;27.10;51.00;27.30;101246.00;;;;4968430;28;93498;-70
2023/07/07 07:35:52;;;;;;;2.30;1.20;;;27.10;51.50;27.30;101250.00;;;;4966961;28;93327;-71
2023/07/07 07:38:21;;;;;;;2.63;1.05;;;27.10;50.90;27.40;101245.00;;;;4969057;28;110450;-71
2023/07/07 07:40:50;;;;;;;1.77;1.17;;;27.10;51.90;27.60;101246.00;;;;4952137;28;93772;-70
2023/07/07 07:43:16;;;;;;;1.08;0.80;;;27.30;51.70;27.80;101245.00;;;;4969886;28;93062;-71
2023/07/07 07:45:41;;;;;;;1.33;1.00;;;27.40;51.30;28.00;101244.00;;;;4965619;28;123458;-72
2023/07/07 07:48:07;;;;;;;2.17;1.00;;;27.70;50.60;28.30;101250.00;;;;4965260;28;110134;-71
2023/07/07 07:50:33;;;;;;;0.70;0.57;;;27.90;49.10;28.40;101247.00;;;;4970943;28;107337;-70
2023/07/07 07:53:00;;;;;;;3.88;0.90;;;28.10;48.30;28.60;101255.00;;;;4964275;28;123681;-71
2023/07/07 07:55:26;;;;;;;1.55;0.90;;;28.20;47.00;28.70;101242.00;;;;4967480;28;113263;-71
2023/07/07 07:57:52;;;;;;;1.30;0.88;;;28.40;44.90;28.60;101246.00;;;;4969306;28;93723;-73
2023/07/07 08:00:18;;;;;;;1.27;0.98;;;28.30;46.00;28.70;101248.00;;;;4967332;28;93000;-72
2023/07/07 08:02:44;;;;;;;0.90;0.73;;;28.40;46.60;28.80;101251.00;;;;4964700;28;122176;-71
2023/07/07 08:05:11;;;;;;;0.93;0.63;;;28.50;44.70;28.90;101258.00;;;;4964014;28;123291;-71
2023/07/07 08:07:37;;;;;;;0.80;0.60;;;28.60;44.60;28.90;101247.00;;;;4968311;28;93336;-73
2023/07/07 08:10:03;;;;;;;1.67;0.90;;;28.60;44.90;29.10;101256.00;;;;4967024;28;109206;-71
2023/07/07 08:12:30;;;;;;;1.77;0.75;;;28.80;45.20;29.30;101253.00;;;;4965167;28;93341;-72
2023/07/07 08:14:55;;;;;;;12.68;1.23;;;29.00;45.30;29.60;101254.00;;;;4973042;28;93622;-71
2023/07/07 08:17:21;;;;;;;1.25;1.05;;;29.10;45.00;29.80;101250.00;;;;4968564;28;108937;-74
2023/07/07 08:19:46;;;;;;;0.80;0.77;;;29.30;42.90;29.80;101253.00;;;;4970736;28;99488;-71
2023/07/07 08:22:20;;;;;;;1.67;0.93;;;29.40;43.50;29.90;101257.00;;;;4966975;28;93223;-73
2023/07/07 08:24:53;;;;;;;1.55;0.50;;;29.50;43.20;30.10;101250.00;;;;4955690;28;102568;-73
2023/07/07 08:27:22;;;;;;;1.05;0.75;;;29.70;43.20;30.20;101257.00;;;;4951635;28;93067;-74
2023/07/07 08:29:48;;;;;;;1.55;0.77;;;29.90;42.70;30.30;101254.00;;;;4969697;28;96005;-73
2023/07/07 08:32:18;;;;;;;1.35;0.90;;;30.00;43.40;30.40;101248.00;;;;4967160;28;93191;-74
2023/07/07 08:34:45;;;;;;;1.50;0.88;;;30.10;42.40;30.50;101253.00;;;;4967503;28;93904;-72
2023/07/07 08:37:10;;;;;;;1.13;0.80;;;30.20;41.10;30.60;101259.00;;;;4965296;28;111573;-72
2023/07/07 08:39:37;;;;;;;1.48;1.00;;;30.30;41.40;30.80;101257.00;;;;4967071;28;92784;-74
2023/07/07 08:42:27;;;;;;;0.80;0.80;;;30.40;41.60;31.00;101252.00;;;;4967616;28;111851;-74
2023/07/07 08:44:55;;;;;;;1.10;0.60;;;30.60;41.40;31.10;101260.00;;;;4936400;28;93239;-72
2023/07/07 08:48:01;;;;;;;1.48;0.70;;;30.70;40.10;31.10;101251.00;;;;4967156;28;102746;-74
2023/07/07 08:50:46;;;;;;;0.75;0.75;;;30.80;39.00;31.10;101261.00;;;;4918577;28;92931;-74
2023/07/07 08:53:36;;;;;;;7.40;1.35;;;30.80;39.80;31.30;101264.00;;;;4948370;28;114453;-75
2023/07/07 08:56:21;;;;;;;0.95;0.85;;;30.90;40.40;31.50;101262.00;;;;4953190;28;94068;-71
2023/07/07 08:59:22;;;;;;;1.23;0.77;;;31.10;40.30;31.70;101265.00;;;;4965314;28;102456;-74
2023/07/07 09:02:07;;;;;;;0.80;0.80;;;31.30;38.70;31.90;101268.00;;;;4959732;28;93039;-72
2023/07/07 09:05:15;;;;;;;0.73;0.50;;;31.50;39.00;32.00;101268.00;;;;4950671;28;113858;-72
2023/07/07 09:07:59;;;;;;;2.20;0.75;;;31.60;37.70;32.10;101267.00;;;;4945943;28;111161;-73
2023/07/07 09:10:31;;;;;;;2.30;1.38;;;31.70;37.90;32.20;101266.00;;;;4946521;28;101201;-72
2023/07/07 09:13:05;;;;;;;0.57;0.57;;;31.90;37.50;32.30;101271.00;;;;4966076;28;108179;-72
2023/07/07 09:15:40;;;;;;;2.70;0.75;;;31.90;37.30;32.50;101272.00;;;;4951769;28;92400;-74
2023/07/07 09:18:22;;;;;;;2.05;0.90;;;32.10;37.00;32.60;101276.00;;;;4927542;28;115454;-72
2023/07/07 09:20:56;;;;;;;0.88;0.70;;;32.20;35.90;32.70;101267.00;;;;4967194;28;101783;-72
2023/07/07 09:23:27;;;;;;;0.55;0.50;;;32.30;36.70;32.80;101269.00;;;;4965514;28;94080;-72
2023/07/07 09:26:22;;;;;;;2.08;0.50;;;32.30;36.50;33.00;101271.00;;;;4950866;28;115643;-72
2023/07/07 09:28:50;;;;;;;0.43;0.43;;;32.50;36.70;33.00;101266.00;;;;4960758;28;116104;-72
2023/07/07 09:31:35;;;;;;;0.50;0.47;;;32.70;36.60;32.90;101273.00;;;;4957590;28;109887;-72
2023/07/07 09:34:02;;;;;;;0.65;0.50;;;32.60;36.20;32.70;101269.00;;;;4953851;28;93006;-73
2023/07/07 09:36:43;;;;;;;0.63;0.45;;;32.50;35.40;32.30;101266.00;;;;4957610;28;94242;-71
2023/07/07 09:40:14;;;;;;;0.55;0.55;;;32.10;35.90;31.70;101260.00;;;;4973448;28;92896;-70
2023/07/07 09:42:44;;;;;;;0.70;0.70;;;31.70;35.80;31.40;101265.00;;;;4957263;28;92541;-72
2023/07/07 09:45:30;;;;;;;0.65;0.55;;;31.30;37.10;31.10;101261.00;;;;4973599;28;110263;-73
2023/07/07 09:48:27;;;;;;;2.30;0.70;;;31.00;37.30;30.90;101261.00;;;;4969537;28;94871;-74
2023/07/07 09:51:15;;;;;;;1.10;0.70;;;30.70;37.70;30.70;101259.00;;;;4974328;28;94753;-72
2023/07/07 09:53:41;;;;;;;2.30;1.25;;;30.50;38.00;30.70;101260.00;;;;4950251;28;93702;-72
2023/07/07 09:56:13;;;;;;;2.00;1.08;;;30.50;38.30;30.70;101260.00;;;;4957984;28;94369;-73
2023/07/07 09:59:02;;;;;;;1.05;0.68;;;30.40;37.80;30.50;101258.00;;;;4973859;28;116433;-73
2023/07/07 10:01:34;;;;;;;0.82;0.82;;;30.30;37.30;30.30;101268.00;;;;4969099;28;93108;-70
2023/07/07 10:04:00;;;;;;;0.40;0.40;;;30.00;37.40;30.10;101258.00;;;;4974007;28;93199;-71
2023/07/07 10:06:53;;;;;;;2.17;0.65;;;29.90;37.70;29.90;101252.00;;;;4975664;28;108372;-73
2023/07/07 10:09:19;;;;;;;1.17;0.93;;;29.70;38.00;30.10;101255.00;;;;4957800;28;92407;-74
2023/07/07 10:11:45;;;;;;;0.80;0.80;;;29.70;37.90;30.30;101256.00;;;;4970864;28;121167;-72
2023/07/07 10:14:14;;;;;;;1.42;0.70;;;29.80;37.70;30.60;101255.00;;;;4966210;28;93077;-73
2023/07/07 10:16:59;;;;;;;0.55;0.40;;;30.00;37.00;30.70;101256.00;;;;4955138;28;94773;-74
2023/07/07 10:19:26;;;;;;;2.83;0.82;;;30.20;37.30;31.10;101252.00;;;;4972186;28;100288;-75
2023/07/07 10:21:52;;;;;;;1.45;0.80;;;30.40;37.90;31.50;101255.00;;;;4946957;28;123146;-72
2023/07/07 10:24:18;;;;;;;1.60;0.85;;;30.80;37.90;32.00;101250.00;;;;4962390;28;93719;-72
2023/07/07 10:26:47;;;;;;;1.73;0.68;;;31.20;37.40;32.40;101248.00;;;;4956813;28;93041;-73
2023/07/07 10:29:23;;;;;;;0.82;0.57;;;31.60;37.30;32.90;101253.00;;;;4968442;28;93494;-74
2023/07/07 10:31:51;;;;;;;1.02;0.70;;;32.10;36.10;33.10;101251.00;;;;4974140;28;93061;-73
2023/07/07 10:34:30;;;;;;;1.33;1.10;;;31.90;35.00;33.50;101250.00;;;;4957276;28;93615;-74
2023/07/07 10:36:58;;;;;;;0.75;0.60;;;32.60;34.70;33.70;101251.00;;;;4952914;28;93792;-73
2023/07/07 10:39:30;;;;;;;1.23;0.93;;;33.00;33.80;33.40;101247.00;;;;4969024;28;94050;-71
2023/07/07 10:41:56;;;;;;;1.80;0.60;;;32.90;32.60;33.20;101245.00;;;;4965849;28;94124;-73
2023/07/07 10:44:27;;;;;;;1.10;0.88;;;32.60;33.20;33.10;101235.00;;;;4968270;28;93241;-72
2023/07/07 10:46:53;;;;;;;0.52;0.52;;;32.50;33.00;33.00;101243.00;;;;4962446;28;93001;-72
2023/07/07 10:49:24;;;;;;;0.95;0.47;;;32.50;32.50;32.80;101243.00;;;;4966982;28;112653;-73
2023/07/07 10:52:29;;;;;;;0.98;0.80;;;32.30;32.50;32.70;101237.00;;;;4955047;28;92913;-71
2023/07/07 10:55:28;;;;;;;0.93;0.63;;;32.20;33.10;32.60;101232.00;;;;4923614;28;93010;-74
2023/07/07 10:58:26;;;;;;;0.73;0.73;;;32.10;33.60;32.40;101242.00;;;;4949097;28;99247;-71
2023/07/07 11:01:30;;;;;;;0.80;0.57;;;31.90;33.60;32.30;101238.00;;;;4953399;28;109320;-69